Ana Sayfa
METAR-TAF:

METAR-TAF

Havaalanları :

Billy Mitchell Airport

Hatteras, Kuzey Carolina, Amerika Birleşik Devletleri

Enlem: 35-13-56N, Boylam: 075-37-21W, yükseklik: 5 m

Güncel hava durumu gözlemi

Rapor saat 23:51 UTC de 22 dakika önce yapıldı.
Rüzgar batı/kuzeybatıdan 5 kt
Sıcaklık 21°C
Nem 73%
Basınç 1017 hPa
Görüş mesafesi: 16.1 km
Açık gökyüzü

METAR: KHSE 232351Z AUTO 30005KT 10SM CLR 21/16 A3002 RMK AO2 SLP165 T02060156 10239 20200 53014

Saat: 20:13 (00:13 UTC)


TAF: eksik

4.000'den fazla havaalanı için hava durumu gözlemleri ve tahminleri (METAR ve TAF raporları).

Kullanılabilir istasyonlar harita üzerinde sarı ve kırmızı noktalarla gösterilir.

İstasyonun adını görmek için fareyi noktanın üzerinde gezdirin.

Sonrasında hava gözlem ve tahminlerini görmek için tıklayın.

Haritayı değiştirmek için: yaklaştırmak için siyah artı işaretli yeşil düğmeye ve uzaklaştırmak için de eksi işaretli düğmeye hızla tıklayın; bitişik haritalar için yeşil okları kullanın.


METAR-TAF: